sensor_id;sensor_type;location;lat;lon;timestamp;temperature;humidity
26342;DHT22;14054;50.108;8.640;2023-02-28T00:01:38;1.30;99.90
26342;DHT22;14054;50.108;8.640;2023-02-28T00:04:04;1.20;99.90
26342;DHT22;14054;50.108;8.640;2023-02-28T00:06:30;1.20;99.90
26342;DHT22;14054;50.108;8.640;2023-02-28T00:08:55;1.30;99.90
26342;DHT22;14054;50.108;8.640;2023-02-28T00:11:21;1.20;99.90
26342;DHT22;14054;50.108;8.640;2023-02-28T00:13:47;1.20;99.90
26342;DHT22;14054;50.108;8.640;2023-02-28T00:16:14;0.30;99.90
26342;DHT22;14054;50.108;8.640;2023-02-28T00:18:40;1.10;99.90
26342;DHT22;14054;50.108;8.640;2023-02-28T00:21:06;1.00;99.90
26342;DHT22;14054;50.108;8.640;2023-02-28T00:23:31;1.00;99.90
26342;DHT22;14054;50.108;8.640;2023-02-28T00:25:57;1.00;99.90
26342;DHT22;14054;50.108;8.640;2023-02-28T00:28:22;1.00;99.90
26342;DHT22;14054;50.108;8.640;2023-02-28T00:30:48;0.80;99.90
26342;DHT22;14054;50.108;8.640;2023-02-28T00:33:13;0.90;99.90
26342;DHT22;14054;50.108;8.640;2023-02-28T00:35:39;0.90;99.90
26342;DHT22;14054;50.108;8.640;2023-02-28T00:38:04;0.80;99.90
26342;DHT22;14054;50.108;8.640;2023-02-28T00:40:30;0.70;99.90
26342;DHT22;14054;50.108;8.640;2023-02-28T00:42:56;1.10;99.90
26342;DHT22;14054;50.108;8.640;2023-02-28T00:45:21;1.10;99.90
26342;DHT22;14054;50.108;8.640;2023-02-28T00:47:47;0.80;99.90
26342;DHT22;14054;50.108;8.640;2023-02-28T00:52:40;1.10;99.90
26342;DHT22;14054;50.108;8.640;2023-02-28T00:55:06;0.70;99.90
26342;DHT22;14054;50.108;8.640;2023-02-28T00:57:31;0.80;99.90
26342;DHT22;14054;50.108;8.640;2023-02-28T00:59:57;0.70;99.90
26342;DHT22;14054;50.108;8.640;2023-02-28T01:04:48;0.60;99.90
26342;DHT22;14054;50.108;8.640;2023-02-28T01:07:14;0.60;99.90
26342;DHT22;14054;50.108;8.640;2023-02-28T01:09:40;0.70;99.90
26342;DHT22;14054;50.108;8.640;2023-02-28T01:12:06;0.70;99.90
26342;DHT22;14054;50.108;8.640;2023-02-28T01:14:32;0.70;99.90
26342;DHT22;14054;50.108;8.640;2023-02-28T01:16:57;0.60;99.90
26342;DHT22;14054;50.108;8.640;2023-02-28T01:19:22;0.70;99.90
26342;DHT22;14054;50.108;8.640;2023-02-28T01:21:48;0.70;99.90
26342;DHT22;14054;50.108;8.640;2023-02-28T01:24:13;0.60;99.90
26342;DHT22;14054;50.108;8.640;2023-02-28T01:26:39;0.60;99.90
26342;DHT22;14054;50.108;8.640;2023-02-28T01:29:04;0.60;99.90
26342;DHT22;14054;50.108;8.640;2023-02-28T01:31:29;0.50;99.90
26342;DHT22;14054;50.108;8.640;2023-02-28T01:33:55;0.50;99.90
26342;DHT22;14054;50.108;8.640;2023-02-28T01:36:21;0.50;99.90
26342;DHT22;14054;50.108;8.640;2023-02-28T01:38:47;0.50;99.90
26342;DHT22;14054;50.108;8.640;2023-02-28T01:41:21;0.50;99.90
26342;DHT22;14054;50.108;8.640;2023-02-28T01:46:13;0.60;99.90
26342;DHT22;14054;50.108;8.640;2023-02-28T01:48:40;0.50;99.90
26342;DHT22;14054;50.108;8.640;2023-02-28T01:51:12;0.50;99.90
26342;DHT22;14054;50.108;8.640;2023-02-28T01:53:43;0.40;99.90
26342;DHT22;14054;50.108;8.640;2023-02-28T01:56:09;0.40;99.90
26342;DHT22;14054;50.108;8.640;2023-02-28T01:58:35;0.30;99.90
26342;DHT22;14054;50.108;8.640;2023-02-28T02:01:01;0.30;99.90
26342;DHT22;14054;50.108;8.640;2023-02-28T02:03:28;0.30;99.90
26342;DHT22;14054;50.108;8.640;2023-02-28T02:05:54;0.30;99.90
26342;DHT22;14054;50.108;8.640;2023-02-28T02:08:20;0.20;99.90
26342;DHT22;14054;50.108;8.640;2023-02-28T02:11:04;0.20;99.90
26342;DHT22;14054;50.108;8.640;2023-02-28T02:13:34;0.20;99.90
26342;DHT22;14054;50.108;8.640;2023-02-28T02:18:54;0.20;99.90
26342;DHT22;14054;50.108;8.640;2023-02-28T02:21:41;0.20;99.90
26342;DHT22;14054;50.108;8.640;2023-02-28T02:26:49;0.10;99.90
26342;DHT22;14054;50.108;8.640;2023-02-28T02:34:38;0.00;99.90
26342;DHT22;14054;50.108;8.640;2023-02-28T02:37:12;0.00;99.90
26342;DHT22;14054;50.108;8.640;2023-02-28T02:39:44;0.00;99.90
26342;DHT22;14054;50.108;8.640;2023-02-28T02:42:14;0.00;99.90
26342;DHT22;14054;50.108;8.640;2023-02-28T02:44:48;0.00;99.90
26342;DHT22;14054;50.108;8.640;2023-02-28T02:47:17;0.00;99.90
26342;DHT22;14054;50.108;8.640;2023-02-28T02:49:45;0.00;99.90
26342;DHT22;14054;50.108;8.640;2023-02-28T02:52:12;-0.10;99.90
26342;DHT22;14054;50.108;8.640;2023-02-28T02:54:43;-0.10;99.90
26342;DHT22;14054;50.108;8.640;2023-02-28T02:57:15;-0.10;99.90
26342;DHT22;14054;50.108;8.640;2023-02-28T02:59:42;-0.20;99.90
26342;DHT22;14054;50.108;8.640;2023-02-28T03:02:09;-0.20;99.90
26342;DHT22;14054;50.108;8.640;2023-02-28T03:04:38;-0.20;99.90
26342;DHT22;14054;50.108;8.640;2023-02-28T03:07:05;-0.20;99.90
26342;DHT22;14054;50.108;8.640;2023-02-28T03:09:32;-0.20;99.90
26342;DHT22;14054;50.108;8.640;2023-02-28T03:11:58;-0.20;99.90
26342;DHT22;14054;50.108;8.640;2023-02-28T03:20:48;-0.30;99.90
26342;DHT22;14054;50.108;8.640;2023-02-28T03:23:01;-0.30;99.90
26342;DHT22;14054;50.108;8.640;2023-02-28T03:26:04;-0.30;99.90
26342;DHT22;14054;50.108;8.640;2023-02-28T03:28:27;-0.30;99.90
26342;DHT22;14054;50.108;8.640;2023-02-28T03:31:02;-0.30;99.90
26342;DHT22;14054;50.108;8.640;2023-02-28T03:33:38;-0.30;99.90
26342;DHT22;14054;50.108;8.640;2023-02-28T03:36:06;-0.40;99.90
26342;DHT22;14054;50.108;8.640;2023-02-28T03:38:40;-0.50;99.90
26342;DHT22;14054;50.108;8.640;2023-02-28T03:41:12;-0.50;99.90
26342;DHT22;14054;50.108;8.640;2023-02-28T03:43:39;-0.40;99.90
26342;DHT22;14054;50.108;8.640;2023-02-28T03:46:07;-0.50;99.90
26342;DHT22;14054;50.108;8.640;2023-02-28T03:48:38;-0.50;99.90
26342;DHT22;14054;50.108;8.640;2023-02-28T03:51:05;-0.60;99.90
26342;DHT22;14054;50.108;8.640;2023-02-28T03:53:37;-0.50;99.90
26342;DHT22;14054;50.108;8.640;2023-02-28T03:56:24;-0.60;99.90
26342;DHT22;14054;50.108;8.640;2023-02-28T03:59:00;-0.60;99.90
26342;DHT22;14054;50.108;8.640;2023-02-28T04:01:28;-0.60;99.90
26342;DHT22;14054;50.108;8.640;2023-02-28T04:03:55;-0.60;99.90
26342;DHT22;14054;50.108;8.640;2023-02-28T04:06:21;-0.60;99.90
26342;DHT22;14054;50.108;8.640;2023-02-28T04:08:47;-0.70;99.90
26342;DHT22;14054;50.108;8.640;2023-02-28T04:13:38;-0.70;99.90
26342;DHT22;14054;50.108;8.640;2023-02-28T04:16:07;-0.70;99.90
26342;DHT22;14054;50.108;8.640;2023-02-28T04:18:38;-0.70;99.90
26342;DHT22;14054;50.108;8.640;2023-02-28T04:21:03;-0.70;99.90
26342;DHT22;14054;50.108;8.640;2023-02-28T04:23:29;-0.70;99.90
26342;DHT22;14054;50.108;8.640;2023-02-28T04:25:55;-0.70;99.90
26342;DHT22;14054;50.108;8.640;2023-02-28T04:28:20;-0.70;99.90
26342;DHT22;14054;50.108;8.640;2023-02-28T04:30:46;-0.70;99.90
26342;DHT22;14054;50.108;8.640;2023-02-28T04:33:11;-0.80;99.90
26342;DHT22;14054;50.108;8.640;2023-02-28T04:35:37;-0.70;99.90
26342;DHT22;14054;50.108;8.640;2023-02-28T04:38:02;-0.70;99.90
26342;DHT22;14054;50.108;8.640;2023-02-28T04:40:27;-0.70;99.90
26342;DHT22;14054;50.108;8.640;2023-02-28T04:42:53;-0.60;99.90
26342;DHT22;14054;50.108;8.640;2023-02-28T04:45:18;-0.60;99.90
26342;DHT22;14054;50.108;8.640;2023-02-28T04:47:44;-0.60;99.90
26342;DHT22;14054;50.108;8.640;2023-02-28T04:50:09;-0.60;99.90
26342;DHT22;14054;50.108;8.640;2023-02-28T04:52:35;-0.60;99.90
26342;DHT22;14054;50.108;8.640;2023-02-28T04:55:00;-0.50;99.90
26342;DHT22;14054;50.108;8.640;2023-02-28T04:57:26;-0.50;99.90
26342;DHT22;14054;50.108;8.640;2023-02-28T04:59:52;-0.50;99.90
26342;DHT22;14054;50.108;8.640;2023-02-28T05:02:17;-0.40;99.90
26342;DHT22;14054;50.108;8.640;2023-02-28T05:04:43;-0.40;99.90
26342;DHT22;14054;50.108;8.640;2023-02-28T05:07:08;-0.40;99.90
26342;DHT22;14054;50.108;8.640;2023-02-28T05:09:35;-0.40;99.90
26342;DHT22;14054;50.108;8.640;2023-02-28T05:12:00;-0.40;99.90
26342;DHT22;14054;50.108;8.640;2023-02-28T05:14:26;-0.40;99.90
26342;DHT22;14054;50.108;8.640;2023-02-28T05:16:51;-0.40;99.90
26342;DHT22;14054;50.108;8.640;2023-02-28T05:19:16;-0.40;99.90
26342;DHT22;14054;50.108;8.640;2023-02-28T05:21:52;-0.40;99.90
26342;DHT22;14054;50.108;8.640;2023-02-28T05:24:17;-0.40;99.90
26342;DHT22;14054;50.108;8.640;2023-02-28T05:26:49;-0.40;99.90
26342;DHT22;14054;50.108;8.640;2023-02-28T05:29:16;-0.40;99.90
26342;DHT22;14054;50.108;8.640;2023-02-28T05:31:41;-0.40;99.90
26342;DHT22;14054;50.108;8.640;2023-02-28T05:34:07;-0.40;99.90
26342;DHT22;14054;50.108;8.640;2023-02-28T05:36:32;-0.40;99.90
26342;DHT22;14054;50.108;8.640;2023-02-28T05:38:58;-0.40;99.90
26342;DHT22;14054;50.108;8.640;2023-02-28T05:41:23;-0.40;99.90
26342;DHT22;14054;50.108;8.640;2023-02-28T05:43:49;-0.50;99.90
26342;DHT22;14054;50.108;8.640;2023-02-28T05:46:15;-0.50;99.90
26342;DHT22;14054;50.108;8.640;2023-02-28T05:48:41;-0.50;99.90
26342;DHT22;14054;50.108;8.640;2023-02-28T05:51:07;-0.60;99.90
26342;DHT22;14054;50.108;8.640;2023-02-28T05:53:32;-0.60;99.90
26342;DHT22;14054;50.108;8.640;2023-02-28T05:55:58;-0.60;99.90
26342;DHT22;14054;50.108;8.640;2023-02-28T05:58:23;-0.60;99.90
26342;DHT22;14054;50.108;8.640;2023-02-28T06:00:50;-0.70;99.90
26342;DHT22;14054;50.108;8.640;2023-02-28T06:03:16;-0.60;99.90
26342;DHT22;14054;50.108;8.640;2023-02-28T06:05:41;-0.60;99.90
26342;DHT22;14054;50.108;8.640;2023-02-28T06:08:07;-0.60;99.90
26342;DHT22;14054;50.108;8.640;2023-02-28T06:10:33;-0.70;99.90
26342;DHT22;14054;50.108;8.640;2023-02-28T06:13:05;-0.60;99.90
26342;DHT22;14054;50.108;8.640;2023-02-28T06:15:30;-0.60;99.90
26342;DHT22;14054;50.108;8.640;2023-02-28T06:17:56;-0.60;99.90
26342;DHT22;14054;50.108;8.640;2023-02-28T06:20:22;-0.60;99.90
26342;DHT22;14054;50.108;8.640;2023-02-28T06:22:48;-0.60;99.90
26342;DHT22;14054;50.108;8.640;2023-02-28T06:25:13;-0.60;99.90
26342;DHT22;14054;50.108;8.640;2023-02-28T06:27:38;-0.60;99.90
26342;DHT22;14054;50.108;8.640;2023-02-28T06:30:04;-0.60;99.90
26342;DHT22;14054;50.108;8.640;2023-02-28T06:32:29;-0.50;99.90
26342;DHT22;14054;50.108;8.640;2023-02-28T06:34:55;-0.50;99.90
26342;DHT22;14054;50.108;8.640;2023-02-28T06:37:22;-0.50;99.90
26342;DHT22;14054;50.108;8.640;2023-02-28T06:39:51;-0.50;99.90
26342;DHT22;14054;50.108;8.640;2023-02-28T06:42:17;-0.50;99.90
26342;DHT22;14054;50.108;8.640;2023-02-28T06:44:42;-0.40;99.90
26342;DHT22;14054;50.108;8.640;2023-02-28T06:47:08;-0.40;99.90
26342;DHT22;14054;50.108;8.640;2023-02-28T06:49:34;-0.40;99.90
26342;DHT22;14054;50.108;8.640;2023-02-28T06:52:00;-0.30;99.90
26342;DHT22;14054;50.108;8.640;2023-02-28T06:54:25;-0.30;99.90
26342;DHT22;14054;50.108;8.640;2023-02-28T06:56:51;-0.20;99.90
26342;DHT22;14054;50.108;8.640;2023-02-28T06:59:17;-0.10;99.90
26342;DHT22;14054;50.108;8.640;2023-02-28T07:01:42;0.00;99.90
26342;DHT22;14054;50.108;8.640;2023-02-28T07:04:08;0.10;99.90
26342;DHT22;14054;50.108;8.640;2023-02-28T07:06:33;0.30;99.90
26342;DHT22;14054;50.108;8.640;2023-02-28T07:08:59;0.40;99.90
26342;DHT22;14054;50.108;8.640;2023-02-28T07:11:25;0.40;99.90
26342;DHT22;14054;50.108;8.640;2023-02-28T07:13:51;1.10;99.90
26342;DHT22;14054;50.108;8.640;2023-02-28T07:16:17;1.30;99.90
26342;DHT22;14054;50.108;8.640;2023-02-28T07:18:42;2.80;99.90
26342;DHT22;14054;50.108;8.640;2023-02-28T07:21:08;3.40;99.90
26342;DHT22;14054;50.108;8.640;2023-02-28T07:23:34;3.00;99.90
26342;DHT22;14054;50.108;8.640;2023-02-28T07:26:00;4.00;99.90
26342;DHT22;14054;50.108;8.640;2023-02-28T07:28:26;4.00;99.90
26342;DHT22;14054;50.108;8.640;2023-02-28T07:30:51;3.60;99.90
26342;DHT22;14054;50.108;8.640;2023-02-28T07:33:17;2.80;99.90
26342;DHT22;14054;50.108;8.640;2023-02-28T07:35:42;2.40;99.90
26342;DHT22;14054;50.108;8.640;2023-02-28T07:38:08;2.20;99.90
26342;DHT22;14054;50.108;8.640;2023-02-28T07:40:34;2.30;99.90
26342;DHT22;14054;50.108;8.640;2023-02-28T07:43:00;2.20;99.90
26342;DHT22;14054;50.108;8.640;2023-02-28T07:45:26;2.20;99.90
26342;DHT22;14054;50.108;8.640;2023-02-28T07:47:51;2.30;99.90
26342;DHT22;14054;50.108;8.640;2023-02-28T07:50:17;2.50;99.90
26342;DHT22;14054;50.108;8.640;2023-02-28T07:52:42;2.50;99.90
26342;DHT22;14054;50.108;8.640;2023-02-28T07:55:08;2.60;99.90
26342;DHT22;14054;50.108;8.640;2023-02-28T07:57:34;2.80;99.90
26342;DHT22;14054;50.108;8.640;2023-02-28T08:00:00;3.10;99.90
26342;DHT22;14054;50.108;8.640;2023-02-28T08:02:25;3.60;99.90
26342;DHT22;14054;50.108;8.640;2023-02-28T08:04:51;4.30;99.90
26342;DHT22;14054;50.108;8.640;2023-02-28T08:07:17;5.10;99.90
26342;DHT22;14054;50.108;8.640;2023-02-28T08:09:42;5.50;99.90
26342;DHT22;14054;50.108;8.640;2023-02-28T08:12:09;6.20;99.90
26342;DHT22;14054;50.108;8.640;2023-02-28T08:14:34;5.80;99.90
26342;DHT22;14054;50.108;8.640;2023-02-28T08:16:59;5.10;99.90
26342;DHT22;14054;50.108;8.640;2023-02-28T08:19:25;4.70;99.90
26342;DHT22;14054;50.108;8.640;2023-02-28T08:21:50;4.20;99.90
26342;DHT22;14054;50.108;8.640;2023-02-28T08:24:16;4.10;99.90
26342;DHT22;14054;50.108;8.640;2023-02-28T08:26:41;4.00;99.90
26342;DHT22;14054;50.108;8.640;2023-02-28T08:29:07;4.10;99.90
26342;DHT22;14054;50.108;8.640;2023-02-28T08:31:32;4.10;99.90
26342;DHT22;14054;50.108;8.640;2023-02-28T08:33:58;4.10;99.90
26342;DHT22;14054;50.108;8.640;2023-02-28T08:36:24;4.10;99.90
26342;DHT22;14054;50.108;8.640;2023-02-28T08:38:50;4.30;99.90
26342;DHT22;14054;50.108;8.640;2023-02-28T08:41:16;4.20;99.90
26342;DHT22;14054;50.108;8.640;2023-02-28T08:43:41;4.30;99.90
26342;DHT22;14054;50.108;8.640;2023-02-28T08:46:07;4.20;99.90
26342;DHT22;14054;50.108;8.640;2023-02-28T08:48:33;4.20;99.90
26342;DHT22;14054;50.108;8.640;2023-02-28T08:51:00;4.20;99.90
26342;DHT22;14054;50.108;8.640;2023-02-28T08:53:25;4.20;99.90
26342;DHT22;14054;50.108;8.640;2023-02-28T08:55:58;4.30;99.90
26342;DHT22;14054;50.108;8.640;2023-02-28T08:58:23;4.40;99.90
26342;DHT22;14054;50.108;8.640;2023-02-28T09:00:49;4.50;99.90
26342;DHT22;14054;50.108;8.640;2023-02-28T09:03:16;4.60;99.90
26342;DHT22;14054;50.108;8.640;2023-02-28T09:05:51;4.40;99.90
26342;DHT22;14054;50.108;8.640;2023-02-28T09:08:16;4.50;99.90
26342;DHT22;14054;50.108;8.640;2023-02-28T09:10:42;4.90;99.90
26342;DHT22;14054;50.108;8.640;2023-02-28T09:13:07;5.20;99.90
26342;DHT22;14054;50.108;8.640;2023-02-28T09:15:33;5.20;99.90
26342;DHT22;14054;50.108;8.640;2023-02-28T09:17:58;5.10;99.90
26342;DHT22;14054;50.108;8.640;2023-02-28T09:20:23;5.10;99.90
26342;DHT22;14054;50.108;8.640;2023-02-28T09:22:49;5.00;99.90
26342;DHT22;14054;50.108;8.640;2023-02-28T09:25:15;4.90;99.90
26342;DHT22;14054;50.108;8.640;2023-02-28T09:27:40;4.90;99.90
26342;DHT22;14054;50.108;8.640;2023-02-28T09:30:06;5.10;99.90
26342;DHT22;14054;50.108;8.640;2023-02-28T09:32:31;5.10;99.40
26342;DHT22;14054;50.108;8.640;2023-02-28T09:34:57;5.20;99.30
26342;DHT22;14054;50.108;8.640;2023-02-28T09:37:22;5.40;99.50
26342;DHT22;14054;50.108;8.640;2023-02-28T09:39:48;5.70;98.00
26342;DHT22;14054;50.108;8.640;2023-02-28T09:42:18;5.70;97.50
26342;DHT22;14054;50.108;8.640;2023-02-28T09:44:46;5.90;96.90
26342;DHT22;14054;50.108;8.640;2023-02-28T09:49:42;5.70;96.00
26342;DHT22;14054;50.108;8.640;2023-02-28T09:52:10;5.70;95.80
26342;DHT22;14054;50.108;8.640;2023-02-28T09:54:37;5.60;95.10
26342;DHT22;14054;50.108;8.640;2023-02-28T09:57:08;5.40;95.40
26342;DHT22;14054;50.108;8.640;2023-02-28T09:59:47;5.50;95.60
26342;DHT22;14054;50.108;8.640;2023-02-28T10:05:22;5.50;95.50
26342;DHT22;14054;50.108;8.640;2023-02-28T10:10:17;5.40;95.40
26342;DHT22;14054;50.108;8.640;2023-02-28T10:12:44;5.30;96.10
26342;DHT22;14054;50.108;8.640;2023-02-28T10:15:13;5.40;95.60
26342;DHT22;14054;50.108;8.640;2023-02-28T10:17:40;5.30;95.50
26342;DHT22;14054;50.108;8.640;2023-02-28T10:20:07;5.50;95.40
26342;DHT22;14054;50.108;8.640;2023-02-28T10:22:40;5.50;95.60
26342;DHT22;14054;50.108;8.640;2023-02-28T10:25:28;5.40;95.60
26342;DHT22;14054;50.108;8.640;2023-02-28T10:27:55;5.10;95.90
26342;DHT22;14054;50.108;8.640;2023-02-28T10:30:23;4.70;96.30
26342;DHT22;14054;50.108;8.640;2023-02-28T10:32:52;5.00;96.40
26342;DHT22;14054;50.108;8.640;2023-02-28T10:35:20;5.00;96.00
26342;DHT22;14054;50.108;8.640;2023-02-28T10:37:47;4.80;95.50
26342;DHT22;14054;50.108;8.640;2023-02-28T10:42:58;5.20;94.60
26342;DHT22;14054;50.108;8.640;2023-02-28T10:45:25;5.00;94.80
26342;DHT22;14054;50.108;8.640;2023-02-28T10:53:31;6.30;92.80
26342;DHT22;14054;50.108;8.640;2023-02-28T10:56:01;6.20;91.50
26342;DHT22;14054;50.108;8.640;2023-02-28T11:01:15;5.70;91.40
26342;DHT22;14054;50.108;8.640;2023-02-28T11:03:41;5.70;91.60
26342;DHT22;14054;50.108;8.640;2023-02-28T11:06:07;5.90;91.90
26342;DHT22;14054;50.108;8.640;2023-02-28T11:08:34;6.50;90.90
26342;DHT22;14054;50.108;8.640;2023-02-28T11:11:01;6.90;88.90
26342;DHT22;14054;50.108;8.640;2023-02-28T11:13:31;6.70;88.40
26342;DHT22;14054;50.108;8.640;2023-02-28T11:15:58;7.10;86.80
26342;DHT22;14054;50.108;8.640;2023-02-28T11:18:29;7.00;85.70
26342;DHT22;14054;50.108;8.640;2023-02-28T11:20:55;7.40;85.90
26342;DHT22;14054;50.108;8.640;2023-02-28T11:23:22;8.30;82.90
26342;DHT22;14054;50.108;8.640;2023-02-28T11:25:51;8.10;81.30
26342;DHT22;14054;50.108;8.640;2023-02-28T11:28:32;9.50;96.40
26342;DHT22;14054;50.108;8.640;2023-02-28T11:31:03;12.80;62.80
26342;DHT22;14054;50.108;8.640;2023-02-28T11:33:30;13.10;60.30
26342;DHT22;14054;50.108;8.640;2023-02-28T11:36:41;10.90;60.00
26342;DHT22;14054;50.108;8.640;2023-02-28T11:38:42;9.90;65.10
26342;DHT22;14054;50.108;8.640;2023-02-28T11:46:20;9.80;65.80
26342;DHT22;14054;50.108;8.640;2023-02-28T11:56:30;14.50;51.80
26342;DHT22;14054;50.108;8.640;2023-02-28T11:59:02;14.00;50.80
26342;DHT22;14054;50.108;8.640;2023-02-28T12:06:40;16.40;44.50
26342;DHT22;14054;50.108;8.640;2023-02-28T12:11:56;12.80;46.50
26342;DHT22;14054;50.108;8.640;2023-02-28T12:19:26;13.60;47.10
26342;DHT22;14054;50.108;8.640;2023-02-28T12:22:03;13.60;46.70
26342;DHT22;14054;50.108;8.640;2023-02-28T12:24:36;12.90;46.40
26342;DHT22;14054;50.108;8.640;2023-02-28T12:27:05;13.30;49.20
26342;DHT22;14054;50.108;8.640;2023-02-28T12:29:52;14.60;45.00
26342;DHT22;14054;50.108;8.640;2023-02-28T12:32:21;15.70;42.40
26342;DHT22;14054;50.108;8.640;2023-02-28T12:34:53;16.90;40.90
26342;DHT22;14054;50.108;8.640;2023-02-28T12:39:50;16.50;39.10
26342;DHT22;14054;50.108;8.640;2023-02-28T12:42:24;15.70;40.10
26342;DHT22;14054;50.108;8.640;2023-02-28T12:44:53;16.80;39.50
26342;DHT22;14054;50.108;8.640;2023-02-28T12:47:19;17.00;38.30
26342;DHT22;14054;50.108;8.640;2023-02-28T12:52:48;18.80;36.10
26342;DHT22;14054;50.108;8.640;2023-02-28T12:55:31;16.70;37.10
26342;DHT22;14054;50.108;8.640;2023-02-28T12:58:05;18.20;36.40
26342;DHT22;14054;50.108;8.640;2023-02-28T13:00:34;17.10;35.90
26342;DHT22;14054;50.108;8.640;2023-02-28T13:10:22;17.70;36.50
26342;DHT22;14054;50.108;8.640;2023-02-28T13:12:51;17.00;35.30
26342;DHT22;14054;50.108;8.640;2023-02-28T13:15:21;17.00;36.90
26342;DHT22;14054;50.108;8.640;2023-02-28T13:17:53;19.20;35.30
26342;DHT22;14054;50.108;8.640;2023-02-28T13:20:23;16.40;35.30
26342;DHT22;14054;50.108;8.640;2023-02-28T13:22:50;17.20;35.60
26342;DHT22;14054;50.108;8.640;2023-02-28T13:27:47;17.70;37.40
26342;DHT22;14054;50.108;8.640;2023-02-28T13:33:17;17.60;36.10
26342;DHT22;14054;50.108;8.640;2023-02-28T13:35:46;17.10;36.00
26342;DHT22;14054;50.108;8.640;2023-02-28T13:38:14;16.20;37.30
26342;DHT22;14054;50.108;8.640;2023-02-28T13:40:40;16.80;37.30
26342;DHT22;14054;50.108;8.640;2023-02-28T13:43:07;16.90;36.80
26342;DHT22;14054;50.108;8.640;2023-02-28T13:45:32;17.70;35.10
26342;DHT22;14054;50.108;8.640;2023-02-28T13:48:16;17.10;34.80
26342;DHT22;14054;50.108;8.640;2023-02-28T13:50:43;15.10;38.70
26342;DHT22;14054;50.108;8.640;2023-02-28T13:55:45;15.90;38.20
26342;DHT22;14054;50.108;8.640;2023-02-28T14:01:08;16.60;36.60
26342;DHT22;14054;50.108;8.640;2023-02-28T14:06:22;15.90;37.30
26342;DHT22;14054;50.108;8.640;2023-02-28T14:08:59;16.00;38.00
26342;DHT22;14054;50.108;8.640;2023-02-28T14:11:30;14.60;40.00
26342;DHT22;14054;50.108;8.640;2023-02-28T14:13:56;13.60;40.90
26342;DHT22;14054;50.108;8.640;2023-02-28T14:16:26;12.60;43.20
26342;DHT22;14054;50.108;8.640;2023-02-28T14:18:58;13.00;42.60
26342;DHT22;14054;50.108;8.640;2023-02-28T14:21:24;13.90;42.60
26342;DHT22;14054;50.108;8.640;2023-02-28T14:24:10;13.60;42.40
26342;DHT22;14054;50.108;8.640;2023-02-28T14:26:55;11.30;86.50
26342;DHT22;14054;50.108;8.640;2023-02-28T14:31:54;9.80;49.30
26342;DHT22;14054;50.108;8.640;2023-02-28T14:36:49;9.50;52.00
26342;DHT22;14054;50.108;8.640;2023-02-28T14:39:16;9.30;52.70
26342;DHT22;14054;50.108;8.640;2023-02-28T14:41:42;9.20;53.20
26342;DHT22;14054;50.108;8.640;2023-02-28T14:49:06;8.80;95.70
26342;DHT22;14054;50.108;8.640;2023-02-28T14:51:32;8.40;55.30
26342;DHT22;14054;50.108;8.640;2023-02-28T14:56:48;8.00;93.80
26342;DHT22;14054;50.108;8.640;2023-02-28T15:04:42;7.10;60.60
26342;DHT22;14054;50.108;8.640;2023-02-28T15:07:13;7.20;62.50
26342;DHT22;14054;50.108;8.640;2023-02-28T15:09:38;7.10;62.00
26342;DHT22;14054;50.108;8.640;2023-02-28T15:12:04;7.00;62.30
26342;DHT22;14054;50.108;8.640;2023-02-28T15:14:29;7.20;77.30
26342;DHT22;14054;50.108;8.640;2023-02-28T15:16:59;6.80;63.70
26342;DHT22;14054;50.108;8.640;2023-02-28T15:19:30;6.90;64.20
26342;DHT22;14054;50.108;8.640;2023-02-28T15:21:58;6.80;64.60
26342;DHT22;14054;50.108;8.640;2023-02-28T15:24:29;6.90;65.10
26342;DHT22;14054;50.108;8.640;2023-02-28T15:26:57;6.70;66.30
26342;DHT22;14054;50.108;8.640;2023-02-28T15:32:36;6.70;70.70
26342;DHT22;14054;50.108;8.640;2023-02-28T15:37:51;6.20;68.40
26342;DHT22;14054;50.108;8.640;2023-02-28T15:40:26;6.20;70.10
26342;DHT22;14054;50.108;8.640;2023-02-28T15:42:59;6.30;75.90
26342;DHT22;14054;50.108;8.640;2023-02-28T15:45:38;6.10;72.00
26342;DHT22;14054;50.108;8.640;2023-02-28T15:48:13;6.10;72.50
26342;DHT22;14054;50.108;8.640;2023-02-28T15:50:39;6.00;73.30
26342;DHT22;14054;50.108;8.640;2023-02-28T15:53:05;5.90;74.70
26342;DHT22;14054;50.108;8.640;2023-02-28T15:55:37;6.00;75.40
26342;DHT22;14054;50.108;8.640;2023-02-28T15:58:03;6.00;75.70
26342;DHT22;14054;50.108;8.640;2023-02-28T16:00:30;5.90;76.20
26342;DHT22;14054;50.108;8.640;2023-02-28T16:02:57;5.70;76.70
26342;DHT22;14054;50.108;8.640;2023-02-28T16:05:29;5.60;78.10
26342;DHT22;14054;50.108;8.640;2023-02-28T16:08:01;5.50;79.60
26342;DHT22;14054;50.108;8.640;2023-02-28T16:10:35;5.50;80.40
26342;DHT22;14054;50.108;8.640;2023-02-28T16:13:01;5.40;81.70
26342;DHT22;14054;50.108;8.640;2023-02-28T16:15:27;5.30;82.80
26342;DHT22;14054;50.108;8.640;2023-02-28T16:17:54;5.40;83.40
26342;DHT22;14054;50.108;8.640;2023-02-28T16:20:21;5.30;84.90
26342;DHT22;14054;50.108;8.640;2023-02-28T16:22:47;5.30;85.60
26342;DHT22;14054;50.108;8.640;2023-02-28T16:25:16;5.20;86.50
26342;DHT22;14054;50.108;8.640;2023-02-28T16:27:42;5.20;87.30
26342;DHT22;14054;50.108;8.640;2023-02-28T16:30:22;5.10;88.10
26342;DHT22;14054;50.108;8.640;2023-02-28T16:32:48;5.00;90.30
26342;DHT22;14054;50.108;8.640;2023-02-28T16:35:14;5.00;90.60
26342;DHT22;14054;50.108;8.640;2023-02-28T16:37:39;4.90;91.10
26342;DHT22;14054;50.108;8.640;2023-02-28T16:40:05;4.90;91.80
26342;DHT22;14054;50.108;8.640;2023-02-28T16:42:31;4.90;92.50
26342;DHT22;14054;50.108;8.640;2023-02-28T16:44:56;4.80;92.90
26342;DHT22;14054;50.108;8.640;2023-02-28T16:47:23;4.80;93.40
26342;DHT22;14054;50.108;8.640;2023-02-28T16:49:49;4.80;93.50
26342;DHT22;14054;50.108;8.640;2023-02-28T16:52:14;4.70;93.70
26342;DHT22;14054;50.108;8.640;2023-02-28T16:54:40;4.70;93.90
26342;DHT22;14054;50.108;8.640;2023-02-28T16:57:06;4.60;94.50
26342;DHT22;14054;50.108;8.640;2023-02-28T16:59:32;4.50;94.90
26342;DHT22;14054;50.108;8.640;2023-02-28T17:01:58;4.50;95.40
26342;DHT22;14054;50.108;8.640;2023-02-28T17:04:24;4.50;95.90
26342;DHT22;14054;50.108;8.640;2023-02-28T17:06:50;4.50;96.60
26342;DHT22;14054;50.108;8.640;2023-02-28T17:09:17;4.40;96.90
26342;DHT22;14054;50.108;8.640;2023-02-28T17:11:43;4.40;96.90
26342;DHT22;14054;50.108;8.640;2023-02-28T17:14:08;4.30;97.10
26342;DHT22;14054;50.108;8.640;2023-02-28T17:16:34;4.30;97.70
26342;DHT22;14054;50.108;8.640;2023-02-28T17:19:02;4.30;98.00
26342;DHT22;14054;50.108;8.640;2023-02-28T17:21:28;4.20;98.40
26342;DHT22;14054;50.108;8.640;2023-02-28T17:23:54;4.20;98.90
26342;DHT22;14054;50.108;8.640;2023-02-28T17:26:20;4.10;99.20
26342;DHT22;14054;50.108;8.640;2023-02-28T17:28:46;4.10;99.20
26342;DHT22;14054;50.108;8.640;2023-02-28T17:31:12;4.10;99.60
26342;DHT22;14054;50.108;8.640;2023-02-28T17:33:37;4.10;99.60
26342;DHT22;14054;50.108;8.640;2023-02-28T17:36:03;4.20;99.90
26342;DHT22;14054;50.108;8.640;2023-02-28T17:38:28;4.00;99.90
26342;DHT22;14054;50.108;8.640;2023-02-28T17:40:54;4.00;99.90
26342;DHT22;14054;50.108;8.640;2023-02-28T17:43:25;4.10;99.90
26342;DHT22;14054;50.108;8.640;2023-02-28T17:48:17;3.90;99.90